Lowest pressure

Not for real navigation. The accuracy of this data is not assured See disclaimer for more information



ICAO NAME COUNTRY WIND Kt GUST Kt VIS m TEMP/DEW C BARO METAR
PAAK Atka, Atka Airport AK United States 7 0 14400 6/2 29.12 PAAK 230936Z 11007KT 9SM OVC009 06/02 A2912 RMK AO1
PADK Adak Island, Adak Airport AK United States 3 0 8000 4/0 29.17 PADK 230936Z AUTO 06003KT 5SM SCT004 OVC014 04/00 A2917 RMK AO1
ULWC 4 9 8000 2/1 29.23 ULWC 230930Z 30004G09KT 8000 -SHRA BKN012CB 02/01 Q0990 R03/290157 NOSIG RMK QFE733/0978
PADU Unalaska, Unalaska Airport AK United States 7 0 16000 3/2 29.25 PADU 230856Z AUTO 16007KT 10SM OVC017 03/02 A2925 RMK AO2 SLP906 60000 T00330017 58001
PAUT 11 0 16000 3/2 29.26 PAUT 230935Z AUTO 11011KT 10SM BKN014 OVC018 03/02 A2926 RMK AO2 T00270022

Show more